sensor_id;sensor_type;location;lat;lon;timestamp;pressure;altitude;pressure_sealevel;temperature;humidity
75401;BME280;63974;47.538;18.972;2023-04-24T00:02:36;99453.59;;;11.90;66.08
75401;BME280;63974;47.538;18.972;2023-04-24T00:05:43;99459.38;;;11.86;66.25
75401;BME280;63974;47.538;18.972;2023-04-24T00:08:45;99448.22;;;11.98;65.59
75401;BME280;63974;47.538;18.972;2023-04-24T00:11:48;99446.22;;;12.00;65.74
75401;BME280;63974;47.538;18.972;2023-04-24T00:14:51;99446.00;;;11.95;65.73
75401;BME280;63974;47.538;18.972;2023-04-24T00:17:54;99437.59;;;11.80;66.23
75401;BME280;63974;47.538;18.972;2023-04-24T00:20:57;99432.97;;;11.82;66.21
75401;BME280;63974;47.538;18.972;2023-04-24T00:24:00;99422.00;;;11.87;66.29
75401;BME280;63974;47.538;18.972;2023-04-24T00:27:02;99419.56;;;11.79;66.59
75401;BME280;63974;47.538;18.972;2023-04-24T00:30:07;99430.13;;;11.71;66.78
75401;BME280;63974;47.538;18.972;2023-04-24T00:33:15;99423.13;;;11.65;67.08
75401;BME280;63974;47.538;18.972;2023-04-24T00:36:18;99416.47;;;11.49;67.35
75401;BME280;63974;47.538;18.972;2023-04-24T00:39:23;99420.94;;;11.62;66.95
75401;BME280;63974;47.538;18.972;2023-04-24T00:42:26;99424.72;;;11.59;67.04
75401;BME280;63974;47.538;18.972;2023-04-24T00:45:29;99428.59;;;11.36;67.84
75401;BME280;63974;47.538;18.972;2023-04-24T00:48:34;99424.69;;;11.53;67.06
75401;BME280;63974;47.538;18.972;2023-04-24T00:51:37;99427.53;;;11.71;66.92
75401;BME280;63974;47.538;18.972;2023-04-24T00:54:40;99429.31;;;11.57;67.23
75401;BME280;63974;47.538;18.972;2023-04-24T00:57:43;99433.81;;;11.42;67.64
75401;BME280;63974;47.538;18.972;2023-04-24T01:00:49;99434.81;;;11.41;67.67
75401;BME280;63974;47.538;18.972;2023-04-24T01:03:57;99424.28;;;11.56;67.90
75401;BME280;63974;47.538;18.972;2023-04-24T01:07:00;99423.47;;;11.55;67.66
75401;BME280;63974;47.538;18.972;2023-04-24T01:10:03;99415.03;;;11.47;67.77
75401;BME280;63974;47.538;18.972;2023-04-24T01:13:10;99419.66;;;11.51;67.52
75401;BME280;63974;47.538;18.972;2023-04-24T01:16:14;99417.47;;;11.48;67.73
75401;BME280;63974;47.538;18.972;2023-04-24T01:19:18;99419.31;;;11.61;67.29
75401;BME280;63974;47.538;18.972;2023-04-24T01:22:21;99419.72;;;11.64;67.08
75401;BME280;63974;47.538;18.972;2023-04-24T01:25:25;99418.25;;;11.55;67.06
75401;BME280;63974;47.538;18.972;2023-04-24T01:28:28;99424.50;;;11.61;66.74
75401;BME280;63974;47.538;18.972;2023-04-24T01:31:32;99424.16;;;11.70;66.20
75401;BME280;63974;47.538;18.972;2023-04-24T01:34:36;99424.53;;;11.67;66.30
75401;BME280;63974;47.538;18.972;2023-04-24T01:37:39;99421.31;;;11.65;66.76
75401;BME280;63974;47.538;18.972;2023-04-24T01:40:43;99423.47;;;11.55;66.97
75401;BME280;63974;47.538;18.972;2023-04-24T01:43:45;99413.84;;;11.43;67.27
75401;BME280;63974;47.538;18.972;2023-04-24T01:46:48;99414.81;;;11.35;67.81
75401;BME280;63974;47.538;18.972;2023-04-24T01:49:52;99420.41;;;11.32;68.14
75401;BME280;63974;47.538;18.972;2023-04-24T01:52:55;99416.81;;;11.33;68.15
75401;BME280;63974;47.538;18.972;2023-04-24T01:55:57;99415.59;;;11.36;67.71
75401;BME280;63974;47.538;18.972;2023-04-24T01:59:03;99413.78;;;11.23;68.00
75401;BME280;63974;47.538;18.972;2023-04-24T02:02:06;99406.19;;;11.28;68.08
75401;BME280;63974;47.538;18.972;2023-04-24T02:05:10;99399.44;;;11.40;67.36
75401;BME280;63974;47.538;18.972;2023-04-24T02:08:13;99406.63;;;11.38;67.87
75401;BME280;63974;47.538;18.972;2023-04-24T02:11:16;99404.09;;;11.04;69.52
75401;BME280;63974;47.538;18.972;2023-04-24T02:14:19;99401.31;;;10.72;70.76
75401;BME280;63974;47.538;18.972;2023-04-24T02:17:21;99395.56;;;10.49;71.91
75401;BME280;63974;47.538;18.972;2023-04-24T02:20:25;99395.66;;;10.62;71.20
75401;BME280;63974;47.538;18.972;2023-04-24T02:23:28;99390.97;;;10.79;70.80
75401;BME280;63974;47.538;18.972;2023-04-24T02:26:31;99384.88;;;10.59;71.28
75401;BME280;63974;47.538;18.972;2023-04-24T02:29:34;99381.38;;;10.73;70.84
75401;BME280;63974;47.538;18.972;2023-04-24T02:32:37;99387.97;;;10.82;70.57
75401;BME280;63974;47.538;18.972;2023-04-24T02:35:45;99388.84;;;10.95;70.06
75401;BME280;63974;47.538;18.972;2023-04-24T02:38:48;99379.09;;;11.03;69.49
75401;BME280;63974;47.538;18.972;2023-04-24T02:41:51;99372.88;;;10.98;69.56
75401;BME280;63974;47.538;18.972;2023-04-24T02:44:54;99376.09;;;11.06;69.48
75401;BME280;63974;47.538;18.972;2023-04-24T02:47:56;99367.72;;;11.04;69.46
75401;BME280;63974;47.538;18.972;2023-04-24T02:50:59;99368.53;;;11.05;69.15
75401;BME280;63974;47.538;18.972;2023-04-24T02:54:02;99364.94;;;11.06;69.27
75401;BME280;63974;47.538;18.972;2023-04-24T02:57:05;99367.16;;;11.15;69.07
75401;BME280;63974;47.538;18.972;2023-04-24T03:00:09;99362.19;;;11.20;68.73
75401;BME280;63974;47.538;18.972;2023-04-24T03:03:12;99360.38;;;11.21;69.04
75401;BME280;63974;47.538;18.972;2023-04-24T03:06:15;99361.19;;;11.21;69.08
75401;BME280;63974;47.538;18.972;2023-04-24T03:09:18;99356.00;;;11.21;69.16
75401;BME280;63974;47.538;18.972;2023-04-24T03:12:22;99361.19;;;11.15;69.29
75401;BME280;63974;47.538;18.972;2023-04-24T03:15:26;99365.03;;;10.85;70.17
75401;BME280;63974;47.538;18.972;2023-04-24T03:18:29;99362.22;;;10.80;70.41
75401;BME280;63974;47.538;18.972;2023-04-24T03:21:32;99370.41;;;10.77;70.59
75401;BME280;63974;47.538;18.972;2023-04-24T03:24:36;99372.75;;;10.72;70.72
75401;BME280;63974;47.538;18.972;2023-04-24T03:27:39;99368.53;;;10.65;71.02
75401;BME280;63974;47.538;18.972;2023-04-24T03:30:51;99372.69;;;10.59;71.18
75401;BME280;63974;47.538;18.972;2023-04-24T03:33:58;99376.03;;;10.47;71.63
75401;BME280;63974;47.538;18.972;2023-04-24T03:37:01;99368.22;;;10.47;71.70
75401;BME280;63974;47.538;18.972;2023-04-24T03:40:06;99355.44;;;10.45;71.43
75401;BME280;63974;47.538;18.972;2023-04-24T03:43:11;99360.25;;;10.48;71.48
75401;BME280;63974;47.538;18.972;2023-04-24T03:46:14;99364.00;;;10.46;71.22
75401;BME280;63974;47.538;18.972;2023-04-24T03:49:24;99363.78;;;10.41;71.53
75401;BME280;63974;47.538;18.972;2023-04-24T03:52:28;99364.81;;;10.46;71.41
75401;BME280;63974;47.538;18.972;2023-04-24T03:55:31;99364.66;;;10.48;71.61
75401;BME280;63974;47.538;18.972;2023-04-24T03:58:34;99353.69;;;10.52;71.07
75401;BME280;63974;47.538;18.972;2023-04-24T04:01:37;99361.47;;;10.52;71.18
75401;BME280;63974;47.538;18.972;2023-04-24T04:04:48;99349.91;;;10.55;70.80
75401;BME280;63974;47.538;18.972;2023-04-24T04:07:52;99360.00;;;10.71;70.44
75401;BME280;63974;47.538;18.972;2023-04-24T04:10:54;99359.00;;;10.72;70.44
75401;BME280;63974;47.538;18.972;2023-04-24T04:13:58;99359.03;;;10.78;70.36
75401;BME280;63974;47.538;18.972;2023-04-24T04:17:01;99355.16;;;10.68;70.52
75401;BME280;63974;47.538;18.972;2023-04-24T04:20:04;99355.88;;;10.89;69.99
75401;BME280;63974;47.538;18.972;2023-04-24T04:23:14;99358.06;;;10.86;70.07
75401;BME280;63974;47.538;18.972;2023-04-24T04:26:46;99352.53;;;11.02;69.78
75401;BME280;63974;47.538;18.972;2023-04-24T04:30:01;99358.53;;;11.02;69.38
75401;BME280;63974;47.538;18.972;2023-04-24T04:33:14;99359.25;;;10.90;70.01
75401;BME280;63974;47.538;18.972;2023-04-24T04:36:17;99351.91;;;11.00;69.86
75401;BME280;63974;47.538;18.972;2023-04-24T04:39:26;99351.19;;;11.18;69.52
75401;BME280;63974;47.538;18.972;2023-04-24T04:42:34;99348.56;;;11.18;69.67
75401;BME280;63974;47.538;18.972;2023-04-24T04:45:37;99352.44;;;11.29;69.45
75401;BME280;63974;47.538;18.972;2023-04-24T04:49:05;99368.44;;;11.32;69.19
75401;BME280;63974;47.538;18.972;2023-04-24T04:52:10;99354.59;;;11.25;70.09
75401;BME280;63974;47.538;18.972;2023-04-24T04:55:14;99362.84;;;11.35;70.39
75401;BME280;63974;47.538;18.972;2023-04-24T04:58:43;99367.63;;;11.38;71.01
75401;BME280;63974;47.538;18.972;2023-04-24T05:01:50;99365.03;;;11.32;70.56
75401;BME280;63974;47.538;18.972;2023-04-24T05:04:53;99369.56;;;11.10;72.04
75401;BME280;63974;47.538;18.972;2023-04-24T05:07:56;99365.59;;;11.21;72.70
75401;BME280;63974;47.538;18.972;2023-04-24T05:10:59;99376.44;;;11.37;72.23
75401;BME280;63974;47.538;18.972;2023-04-24T05:14:04;99370.53;;;11.56;72.76
75401;BME280;63974;47.538;18.972;2023-04-24T05:17:10;99375.94;;;11.61;72.92
75401;BME280;63974;47.538;18.972;2023-04-24T05:20:15;99386.94;;;11.76;71.60
75401;BME280;63974;47.538;18.972;2023-04-24T05:23:18;99382.56;;;11.90;71.67
75401;BME280;63974;47.538;18.972;2023-04-24T05:26:25;99379.38;;;12.07;70.77
75401;BME280;63974;47.538;18.972;2023-04-24T05:29:28;99386.38;;;11.94;70.12
75401;BME280;63974;47.538;18.972;2023-04-24T05:32:33;99378.56;;;12.26;70.27
75401;BME280;63974;47.538;18.972;2023-04-24T05:35:38;99385.16;;;12.48;70.92
75401;BME280;63974;47.538;18.972;2023-04-24T05:38:41;99384.72;;;12.58;70.83
75401;BME280;63974;47.538;18.972;2023-04-24T05:41:45;99383.53;;;12.60;70.88
75401;BME280;63974;47.538;18.972;2023-04-24T05:44:48;99389.31;;;12.62;70.51
75401;BME280;63974;47.538;18.972;2023-04-24T05:47:55;99391.88;;;12.88;68.24
75401;BME280;63974;47.538;18.972;2023-04-24T05:50:58;99405.25;;;13.11;68.96
75401;BME280;63974;47.538;18.972;2023-04-24T05:54:01;99400.47;;;13.08;69.70
75401;BME280;63974;47.538;18.972;2023-04-24T05:57:06;99396.47;;;12.99;69.62
75401;BME280;63974;47.538;18.972;2023-04-24T06:00:31;99394.47;;;12.95;70.83
75401;BME280;63974;47.538;18.972;2023-04-24T06:03:40;99406.34;;;12.71;72.86
75401;BME280;63974;47.538;18.972;2023-04-24T06:06:44;99399.97;;;12.54;74.17
75401;BME280;63974;47.538;18.972;2023-04-24T06:09:47;99405.19;;;12.48;74.21
75401;BME280;63974;47.538;18.972;2023-04-24T06:12:51;99404.56;;;12.46;74.45
75401;BME280;63974;47.538;18.972;2023-04-24T06:15:54;99400.34;;;12.51;74.39
75401;BME280;63974;47.538;18.972;2023-04-24T06:19:05;99400.56;;;12.63;73.92
75401;BME280;63974;47.538;18.972;2023-04-24T06:22:08;99405.94;;;12.68;73.79
75401;BME280;63974;47.538;18.972;2023-04-24T06:25:12;99403.31;;;12.74;74.04
75401;BME280;63974;47.538;18.972;2023-04-24T06:28:15;99394.50;;;12.82;74.00
75401;BME280;63974;47.538;18.972;2023-04-24T06:31:21;99396.09;;;13.02;71.32
75401;BME280;63974;47.538;18.972;2023-04-24T06:34:24;99405.00;;;13.26;69.66
75401;BME280;63974;47.538;18.972;2023-04-24T06:37:27;99402.69;;;13.48;67.52
75401;BME280;63974;47.538;18.972;2023-04-24T06:40:30;99408.47;;;13.57;66.79
75401;BME280;63974;47.538;18.972;2023-04-24T06:43:33;99421.50;;;13.57;65.57
75401;BME280;63974;47.538;18.972;2023-04-24T06:46:36;99418.28;;;13.61;65.52
75401;BME280;63974;47.538;18.972;2023-04-24T06:49:42;99419.22;;;13.73;65.05
75401;BME280;63974;47.538;18.972;2023-04-24T06:52:46;99427.16;;;13.85;65.20
75401;BME280;63974;47.538;18.972;2023-04-24T06:55:49;99421.69;;;13.93;65.52
75401;BME280;63974;47.538;18.972;2023-04-24T06:58:51;99421.66;;;13.99;66.60
75401;BME280;63974;47.538;18.972;2023-04-24T07:01:55;99408.00;;;13.97;67.48
75401;BME280;63974;47.538;18.972;2023-04-24T07:04:58;99408.84;;;14.22;66.69
75401;BME280;63974;47.538;18.972;2023-04-24T07:08:01;99419.75;;;14.13;67.57
75401;BME280;63974;47.538;18.972;2023-04-24T07:11:04;99420.69;;;14.25;67.32
75401;BME280;63974;47.538;18.972;2023-04-24T07:14:08;99428.63;;;14.36;67.35
75401;BME280;63974;47.538;18.972;2023-04-24T07:17:13;99424.63;;;14.34;68.04
75401;BME280;63974;47.538;18.972;2023-04-24T07:20:17;99419.75;;;14.19;67.82
75401;BME280;63974;47.538;18.972;2023-04-24T07:23:21;99417.75;;;14.39;67.23
75401;BME280;63974;47.538;18.972;2023-04-24T07:26:26;99424.84;;;14.32;68.10
75401;BME280;63974;47.538;18.972;2023-04-24T07:29:29;99429.63;;;14.35;69.22
75401;BME280;63974;47.538;18.972;2023-04-24T07:32:31;99438.88;;;14.38;68.42
75401;BME280;63974;47.538;18.972;2023-04-24T07:35:34;99430.34;;;14.49;68.60
75401;BME280;63974;47.538;18.972;2023-04-24T07:38:37;99428.50;;;14.49;68.70
75401;BME280;63974;47.538;18.972;2023-04-24T07:41:40;99423.88;;;14.51;68.50
75401;BME280;63974;47.538;18.972;2023-04-24T07:44:43;99428.63;;;14.79;68.38
75401;BME280;63974;47.538;18.972;2023-04-24T07:47:46;99431.66;;;14.58;68.14
75401;BME280;63974;47.538;18.972;2023-04-24T07:50:49;99432.19;;;14.66;68.20
75401;BME280;63974;47.538;18.972;2023-04-24T07:53:52;99424.94;;;14.68;68.56
75401;BME280;63974;47.538;18.972;2023-04-24T07:56:55;99432.53;;;14.70;69.38
75401;BME280;63974;47.538;18.972;2023-04-24T07:59:58;99436.91;;;14.94;69.06
75401;BME280;63974;47.538;18.972;2023-04-24T08:03:01;99432.00;;;14.86;68.77
75401;BME280;63974;47.538;18.972;2023-04-24T08:06:05;99435.06;;;15.01;68.15
75401;BME280;63974;47.538;18.972;2023-04-24T08:09:07;99433.00;;;14.85;67.86
75401;BME280;63974;47.538;18.972;2023-04-24T08:12:11;99427.63;;;14.80;68.29
75401;BME280;63974;47.538;18.972;2023-04-24T08:15:14;99425.78;;;14.62;67.71
75401;BME280;63974;47.538;18.972;2023-04-24T08:18:17;99443.66;;;14.41;69.71
75401;BME280;63974;47.538;18.972;2023-04-24T08:21:21;99446.38;;;14.28;71.81
75401;BME280;63974;47.538;18.972;2023-04-24T08:24:24;99447.44;;;14.20;72.77
75401;BME280;63974;47.538;18.972;2023-04-24T08:27:27;99449.81;;;14.22;72.26
75401;BME280;63974;47.538;18.972;2023-04-24T08:30:30;99455.81;;;14.29;71.57
75401;BME280;63974;47.538;18.972;2023-04-24T08:33:33;99455.00;;;14.28;72.51
75401;BME280;63974;47.538;18.972;2023-04-24T08:36:38;99454.59;;;14.31;72.70
75401;BME280;63974;47.538;18.972;2023-04-24T08:39:49;99457.50;;;14.41;73.04
75401;BME280;63974;47.538;18.972;2023-04-24T08:42:54;99467.44;;;14.57;71.35
75401;BME280;63974;47.538;18.972;2023-04-24T08:45:59;99456.22;;;14.75;70.06
75401;BME280;63974;47.538;18.972;2023-04-24T08:49:03;99456.53;;;14.85;71.23
75401;BME280;63974;47.538;18.972;2023-04-24T08:52:07;99459.50;;;14.88;70.63
75401;BME280;63974;47.538;18.972;2023-04-24T08:55:10;99461.97;;;15.01;71.10
75401;BME280;63974;47.538;18.972;2023-04-24T08:58:14;99465.41;;;15.20;71.12
75401;BME280;63974;47.538;18.972;2023-04-24T09:01:19;99471.66;;;15.19;71.11
75401;BME280;63974;47.538;18.972;2023-04-24T09:10:27;99457.78;;;15.36;71.69
75401;BME280;63974;47.538;18.972;2023-04-24T09:13:33;99455.19;;;15.54;71.15
75401;BME280;63974;47.538;18.972;2023-04-24T09:16:36;99459.00;;;15.70;71.32
75401;BME280;63974;47.538;18.972;2023-04-24T09:19:40;99459.22;;;15.68;71.03
75401;BME280;63974;47.538;18.972;2023-04-24T09:22:44;99453.44;;;15.77;69.61
75401;BME280;63974;47.538;18.972;2023-04-24T09:25:54;99465.22;;;15.86;69.59
75401;BME280;63974;47.538;18.972;2023-04-24T09:28:58;99454.66;;;15.93;70.16
75401;BME280;63974;47.538;18.972;2023-04-24T09:32:17;99458.66;;;15.95;70.20
75401;BME280;63974;47.538;18.972;2023-04-24T09:35:20;99448.97;;;15.96;69.44
75401;BME280;63974;47.538;18.972;2023-04-24T09:38:34;99451.31;;;15.86;69.54
75401;BME280;63974;47.538;18.972;2023-04-24T09:41:54;99448.97;;;15.96;69.44
75401;BME280;63974;47.538;18.972;2023-04-24T09:44:59;99458.81;;;16.23;69.70
75401;BME280;63974;47.538;18.972;2023-04-24T09:48:16;99449.69;;;16.14;69.84
75401;BME280;63974;47.538;18.972;2023-04-24T09:51:33;99448.41;;;16.58;68.01
75401;BME280;63974;47.538;18.972;2023-04-24T09:54:37;99449.91;;;16.54;68.51
75401;BME280;63974;47.538;18.972;2023-04-24T09:57:53;99453.31;;;16.43;69.32
75401;BME280;63974;47.538;18.972;2023-04-24T10:00:57;99458.09;;;16.05;69.93
75401;BME280;63974;47.538;18.972;2023-04-24T10:04:00;99462.63;;;15.98;70.36
75401;BME280;63974;47.538;18.972;2023-04-24T10:07:03;99456.16;;;15.71;71.31
75401;BME280;63974;47.538;18.972;2023-04-24T10:10:09;99460.63;;;15.53;72.49
75401;BME280;63974;47.538;18.972;2023-04-24T10:13:14;99456.59;;;15.68;72.64
75401;BME280;63974;47.538;18.972;2023-04-24T10:16:21;99461.75;;;15.57;73.39
75401;BME280;63974;47.538;18.972;2023-04-24T10:19:25;99458.31;;;15.74;73.64
75401;BME280;63974;47.538;18.972;2023-04-24T10:22:31;99451.25;;;15.63;73.95
75401;BME280;63974;47.538;18.972;2023-04-24T10:25:35;99451.00;;;15.65;73.67
75401;BME280;63974;47.538;18.972;2023-04-24T10:28:39;99441.03;;;15.73;72.75
75401;BME280;63974;47.538;18.972;2023-04-24T10:31:44;99447.59;;;15.64;73.82
75401;BME280;63974;47.538;18.972;2023-04-24T10:34:50;99447.25;;;15.90;74.12
75401;BME280;63974;47.538;18.972;2023-04-24T10:38:01;99447.75;;;15.80;73.48
75401;BME280;63974;47.538;18.972;2023-04-24T10:41:10;99445.50;;;15.55;72.59
75401;BME280;63974;47.538;18.972;2023-04-24T10:44:22;99444.06;;;15.59;73.91
75401;BME280;63974;47.538;18.972;2023-04-24T10:47:24;99447.00;;;15.62;74.53
75401;BME280;63974;47.538;18.972;2023-04-24T10:53:45;99443.78;;;15.31;72.79
75401;BME280;63974;47.538;18.972;2023-04-24T10:56:48;99443.91;;;15.18;73.59
75401;BME280;63974;47.538;18.972;2023-04-24T11:00:12;99447.78;;;15.15;74.17
75401;BME280;63974;47.538;18.972;2023-04-24T11:03:29;99458.06;;;15.10;74.50
75401;BME280;63974;47.538;18.972;2023-04-24T11:06:36;99460.03;;;14.97;75.19
75401;BME280;63974;47.538;18.972;2023-04-24T11:09:42;99456.03;;;14.94;74.52
75401;BME280;63974;47.538;18.972;2023-04-24T11:12:45;99445.81;;;15.11;74.54
75401;BME280;63974;47.538;18.972;2023-04-24T11:16:14;99446.31;;;15.19;74.80
75401;BME280;63974;47.538;18.972;2023-04-24T11:19:18;99448.28;;;15.24;74.02
75401;BME280;63974;47.538;18.972;2023-04-24T11:22:23;99439.69;;;15.53;73.65
75401;BME280;63974;47.538;18.972;2023-04-24T11:25:30;99443.44;;;15.57;72.91
75401;BME280;63974;47.538;18.972;2023-04-24T11:28:34;99441.00;;;15.44;74.12
75401;BME280;63974;47.538;18.972;2023-04-24T11:31:39;99435.06;;;15.37;74.77
75401;BME280;63974;47.538;18.972;2023-04-24T11:34:46;99431.94;;;15.28;74.50
75401;BME280;63974;47.538;18.972;2023-04-24T11:37:51;99433.59;;;15.23;74.99
75401;BME280;63974;47.538;18.972;2023-04-24T11:41:14;99425.91;;;15.46;75.17
75401;BME280;63974;47.538;18.972;2023-04-24T11:44:20;99416.38;;;15.51;74.88
75401;BME280;63974;47.538;18.972;2023-04-24T11:47:30;99407.69;;;15.39;74.60
75401;BME280;63974;47.538;18.972;2023-04-24T11:50:33;99413.97;;;15.32;75.38
75401;BME280;63974;47.538;18.972;2023-04-24T11:53:36;99404.75;;;15.29;75.45
75401;BME280;63974;47.538;18.972;2023-04-24T11:56:39;99397.19;;;15.21;76.56
75401;BME280;63974;47.538;18.972;2023-04-24T11:59:47;99395.84;;;15.37;75.87
75401;BME280;63974;47.538;18.972;2023-04-24T12:02:50;99383.78;;;15.76;75.24
75401;BME280;63974;47.538;18.972;2023-04-24T12:06:04;99377.38;;;16.02;74.17
75401;BME280;63974;47.538;18.972;2023-04-24T12:09:09;99379.00;;;16.26;73.29
75401;BME280;63974;47.538;18.972;2023-04-24T12:12:19;99392.94;;;16.49;71.81
75401;BME280;63974;47.538;18.972;2023-04-24T12:15:23;99392.00;;;16.67;71.82
75401;BME280;63974;47.538;18.972;2023-04-24T12:18:27;99395.31;;;16.51;72.99
75401;BME280;63974;47.538;18.972;2023-04-24T12:21:30;99397.44;;;16.31;74.17
75401;BME280;63974;47.538;18.972;2023-04-24T12:24:34;99390.88;;;16.63;73.46
75401;BME280;63974;47.538;18.972;2023-04-24T12:27:37;99383.31;;;17.01;70.65
75401;BME280;63974;47.538;18.972;2023-04-24T12:30:57;99384.66;;;17.43;68.63
75401;BME280;63974;47.538;18.972;2023-04-24T12:34:03;99385.16;;;16.89;68.70
75401;BME280;63974;47.538;18.972;2023-04-24T12:37:11;99384.91;;;16.90;69.18
75401;BME280;63974;47.538;18.972;2023-04-24T12:40:14;99374.53;;;16.95;68.20
75401;BME280;63974;47.538;18.972;2023-04-24T12:43:19;99366.00;;;16.77;71.51
75401;BME280;63974;47.538;18.972;2023-04-24T12:46:22;99367.69;;;16.83;70.82
75401;BME280;63974;47.538;18.972;2023-04-24T12:49:25;99368.72;;;16.93;68.76
75401;BME280;63974;47.538;18.972;2023-04-24T12:52:29;99364.56;;;17.09;66.80
75401;BME280;63974;47.538;18.972;2023-04-24T12:55:32;99357.75;;;16.96;66.60
75401;BME280;63974;47.538;18.972;2023-04-24T12:58:35;99357.97;;;17.06;66.28
75401;BME280;63974;47.538;18.972;2023-04-24T13:01:38;99355.91;;;17.08;66.64
75401;BME280;63974;47.538;18.972;2023-04-24T13:04:41;99356.44;;;16.71;67.68
75401;BME280;63974;47.538;18.972;2023-04-24T13:07:43;99357.59;;;16.29;69.30
75401;BME280;63974;47.538;18.972;2023-04-24T13:10:46;99351.19;;;16.13;70.27
75401;BME280;63974;47.538;18.972;2023-04-24T13:13:49;99346.38;;;15.87;71.01
75401;BME280;63974;47.538;18.972;2023-04-24T13:16:55;99330.91;;;16.09;70.70
75401;BME280;63974;47.538;18.972;2023-04-24T13:19:58;99329.66;;;16.23;71.22
75401;BME280;63974;47.538;18.972;2023-04-24T13:23:01;99321.78;;;16.69;70.15
75401;BME280;63974;47.538;18.972;2023-04-24T13:26:04;99325.75;;;16.83;68.33
75401;BME280;63974;47.538;18.972;2023-04-24T13:29:08;99320.03;;;16.97;68.49
75401;BME280;63974;47.538;18.972;2023-04-24T13:32:10;99317.16;;;16.99;68.56
75401;BME280;63974;47.538;18.972;2023-04-24T13:35:13;99314.28;;;16.72;69.45
75401;BME280;63974;47.538;18.972;2023-04-24T13:38:16;99313.41;;;16.32;71.00
75401;BME280;63974;47.538;18.972;2023-04-24T13:41:19;99314.19;;;16.21;70.95
75401;BME280;63974;47.538;18.972;2023-04-24T13:44:22;99307.13;;;16.33;71.20
75401;BME280;63974;47.538;18.972;2023-04-24T13:47:26;99298.94;;;16.41;69.29
75401;BME280;63974;47.538;18.972;2023-04-24T13:50:28;99300.00;;;16.80;68.20
75401;BME280;63974;47.538;18.972;2023-04-24T13:53:31;99295.16;;;17.00;67.21
75401;BME280;63974;47.538;18.972;2023-04-24T13:56:35;99283.50;;;16.79;68.06
75401;BME280;63974;47.538;18.972;2023-04-24T13:59:38;99287.22;;;16.83;68.19
75401;BME280;63974;47.538;18.972;2023-04-24T14:02:40;99282.38;;;16.64;68.31
75401;BME280;63974;47.538;18.972;2023-04-24T14:05:43;99281.09;;;16.78;67.87
75401;BME280;63974;47.538;18.972;2023-04-24T14:08:47;99279.03;;;16.80;67.60
75401;BME280;63974;47.538;18.972;2023-04-24T14:11:51;99264.66;;;17.10;66.15
75401;BME280;63974;47.538;18.972;2023-04-24T14:14:54;99265.72;;;17.26;65.81
75401;BME280;63974;47.538;18.972;2023-04-24T14:17:57;99261.84;;;17.28;65.80
75401;BME280;63974;47.538;18.972;2023-04-24T14:21:00;99258.38;;;17.11;66.06
75401;BME280;63974;47.538;18.972;2023-04-24T14:24:04;99255.91;;;17.05;66.70
75401;BME280;63974;47.538;18.972;2023-04-24T14:27:06;99252.72;;;17.03;66.99
75401;BME280;63974;47.538;18.972;2023-04-24T14:30:10;99254.03;;;17.17;66.91
75401;BME280;63974;47.538;18.972;2023-04-24T14:33:15;99258.56;;;17.21;66.68
75401;BME280;63974;47.538;18.972;2023-04-24T14:36:18;99263.09;;;17.26;67.16
75401;BME280;63974;47.538;18.972;2023-04-24T14:39:21;99250.63;;;17.33;67.06
75401;BME280;63974;47.538;18.972;2023-04-24T14:42:23;99250.97;;;17.36;66.67
75401;BME280;63974;47.538;18.972;2023-04-24T14:45:27;99245.75;;;17.53;66.63
75401;BME280;63974;47.538;18.972;2023-04-24T14:48:30;99245.34;;;17.44;67.29
75401;BME280;63974;47.538;18.972;2023-04-24T14:51:33;99241.09;;;17.27;67.58
75401;BME280;63974;47.538;18.972;2023-04-24T14:54:36;99248.59;;;17.35;67.06
75401;BME280;63974;47.538;18.972;2023-04-24T14:57:39;99252.97;;;17.62;66.36
75401;BME280;63974;47.538;18.972;2023-04-24T15:00:42;99250.19;;;17.69;63.29
75401;BME280;63974;47.538;18.972;2023-04-24T15:03:44;99246.78;;;17.68;63.34
75401;BME280;63974;47.538;18.972;2023-04-24T15:06:48;99243.50;;;17.61;62.52
75401;BME280;63974;47.538;18.972;2023-04-24T15:09:52;99253.56;;;17.48;64.86
75401;BME280;63974;47.538;18.972;2023-04-24T15:12:55;99243.44;;;17.56;62.42
75401;BME280;63974;47.538;18.972;2023-04-24T15:15:58;99249.72;;;17.55;62.69
75401;BME280;63974;47.538;18.972;2023-04-24T15:19:01;99253.13;;;17.39;64.82
75401;BME280;63974;47.538;18.972;2023-04-24T15:22:04;99242.63;;;17.11;66.13
75401;BME280;63974;47.538;18.972;2023-04-24T15:25:07;99234.19;;;16.93;65.98
75401;BME280;63974;47.538;18.972;2023-04-24T15:28:10;99258.19;;;16.73;66.15
75401;BME280;63974;47.538;18.972;2023-04-24T15:31:13;99249.63;;;16.38;66.38
75401;BME280;63974;47.538;18.972;2023-04-24T15:34:15;99254.53;;;16.12;67.51
75401;BME280;63974;47.538;18.972;2023-04-24T15:37:18;99248.72;;;16.21;67.76
75401;BME280;63974;47.538;18.972;2023-04-24T15:40:21;99242.56;;;16.16;67.86
75401;BME280;63974;47.538;18.972;2023-04-24T15:43:24;99249.06;;;16.13;68.32
75401;BME280;63974;47.538;18.972;2023-04-24T15:46:27;99244.50;;;15.97;68.88
75401;BME280;63974;47.538;18.972;2023-04-24T15:49:31;99248.28;;;16.13;69.41
75401;BME280;63974;47.538;18.972;2023-04-24T15:52:34;99244.75;;;16.07;69.23
75401;BME280;63974;47.538;18.972;2023-04-24T15:55:37;99249.50;;;15.99;69.79
75401;BME280;63974;47.538;18.972;2023-04-24T15:58:40;99240.66;;;16.00;70.24
75401;BME280;63974;47.538;18.972;2023-04-24T16:01:43;99240.66;;;16.00;69.21
75401;BME280;63974;47.538;18.972;2023-04-24T16:04:48;99224.94;;;16.00;69.66
75401;BME280;63974;47.538;18.972;2023-04-24T16:07:51;99226.19;;;15.97;69.24
75401;BME280;63974;47.538;18.972;2023-04-24T16:10:54;99225.16;;;15.87;69.82
75401;BME280;63974;47.538;18.972;2023-04-24T16:13:57;99208.53;;;15.93;69.43
75401;BME280;63974;47.538;18.972;2023-04-24T16:17:00;99200.25;;;15.84;69.49